Date,TemperatureHighF,TemperatureAvgF,TemperatureLowF,DewpointHighF,DewpointAvgF,DewpointLowF,HumidityHigh,HumidityAvg,HumidityLow,PressureMaxIn,PressureMinIn,WindSpeedMaxMPH,WindSpeedAvgMPH,GustSpeedMaxMPH,PrecipitationSumIn
2014-1-1,51.6,48.4,45.9,47.5,44.7,42.5,91,87,85,30.13,30.04,6,1,17,0.00
2014-1-2,52.0,47.9,42.6,47.2,44.8,40.2,94,89,78,30.13,30.08,1,0,6,0.05
2014-1-3,52.0,50.6,49.3,50.6,48.7,46.6,95,93,89,30.22,30.11,1,0,7,0.23
2014-1-4,53.6,51.8,50.5,51.7,49.9,48.3,96,93,88,30.22,30.03,6,1,18,0.24
2014-1-5,53.6,50.6,43.7,50.3,47.6,42.0,94,90,85,30.03,29.79,10,3,20,0.78
2014-1-6,53.7,46.7,40.6,47.3,43.0,38.8,94,87,75,30.21,29.89,3,0,15,0.01
2014-1-7,54.9,47.3,43.2,48.5,43.5,40.6,93,87,75,30.33,30.21,2,0,5,0.01
2014-1-8,55.0,46.9,42.0,47.6,42.8,39.4,93,86,74,30.36,30.30,0,0,4,0.01
2014-1-9,44.4,43.8,41.0,43.1,42.0,38.9,95,93,87,30.30,30.22,0,0,2,0.01
2014-1-10,51.3,47.2,43.3,47.1,44.1,40.6,94,89,83,30.21,30.14,1,0,255,0.00
2014-1-11,51.8,44.9,40.5,48.3,42.2,38.4,95,91,84,30.21,30.16,71,2,255,0.00
2014-1-12,53.6,48.3,42.4,47.2,44.0,40.8,94,85,77,30.20,30.12,7,2,255,0.01
2014-1-13,57.6,50.8,45.4,46.9,44.4,42.1,92,79,65,30.13,30.02,7,1,255,0.00
2014-1-14,50.8,48.0,45.3,48.3,46.0,43.5,96,93,89,30.01,29.81,5,0,255,1.75
2014-1-15,54.0,47.5,44.1,47.0,43.9,40.8,96,87,76,29.98,29.80,1,0,6,0.01
2014-1-16,51.8,45.7,41.9,46.3,41.7,38.4,90,86,80,30.08,29.97,2,0,255,0.00
2014-1-17,53.0,50.4,45.3,47.5,45.7,42.5,93,84,77,30.07,29.99,3,1,255,0.00
2014-1-18,59.9,54.3,49.7,47.8,45.1,42.1,86,72,52,30.01,29.78,5,1,255,0.00
2014-1-19,60.3,58.2,57.4,49.1,47.4,41.6,72,68,50,29.78,29.73,8,3,20,0.00
2014-1-20,49.2,48.2,46.9,47.3,46.0,44.7,95,92,89,29.61,29.49,8,3,23,0.06
2014-1-21,47.8,47.0,45.6,47.0,46.0,44.5,97,96,95,29.75,29.50,3,1,10,1.60
2014-1-22,47.6,45.8,42.3,46.8,44.9,41.2,97,97,96,30.02,29.79,1,0,7,0.07
2014-1-23,47.7,44.8,39.9,45.8,42.9,38.6,95,93,91,30.06,30.02,0,0,5,0.02
2014-1-24,47.7,45.4,42.0,46.6,43.7,40.7,96,94,91,29.99,29.44,5,1,17,0.56
2014-1-25,44.7,41.9,39.8,40.3,34.5,29.3,95,76,59,29.80,29.44,13,5,255,0.63
2014-1-26,43.1,39.8,33.3,33.7,30.4,27.2,78,69,57,29.80,29.69,10,3,25,0.00
2014-1-27,46.5,41.4,35.3,42.3,34.1,25.6,92,76,61,29.76,29.43,6,1,14,0.46
2014-1-28,48.9,42.9,35.6,44.3,39.4,30.9,95,87,74,29.53,29.35,2,0,9,0.23
2014-1-29,47.9,41.8,34.7,44.3,37.8,31.3,91,86,75,29.86,29.54,7,1,16,0.20
2014-1-30,57.2,52.3,47.3,46.6,42.4,39.2,86,70,57,29.88,29.82,9,4,21,0.06
2014-1-31,59.6,56.8,53.5,50.4,46.2,43.1,88,68,55,29.85,29.78,12,4,26,0.42
2014-2-1,56.8,53.3,51.3,52.8,50.4,48.4,94,90,82,29.86,29.75,6,1,17,0.94
2014-2-2,52.8,51.6,50.5,50.0,48.6,47.2,95,90,83,29.74,29.67,10,3,20,0.05
2014-2-3,47.3,46.4,45.7,46.2,45.3,44.6,96,96,96,29.91,29.88,1,0,4,1.06
2014-2-4,51.6,46.9,44.1,49.1,45.4,43.0,97,95,85,30.04,29.92,1,0,7,0.23
2014-2-5,49.0,46.0,44.1,47.0,44.5,43.0,99,95,88,30.04,29.92,3,1,9,0.39
2014-2-6,55.0,47.5,43.2,46.5,42.9,38.7,96,85,63,30.05,29.79,6,1,17,0.63
2014-2-7,56.7,48.4,41.5,47.6,43.6,38.5,93,84,71,30.10,29.98,2,0,8,0.00
2014-2-8,55.4,50.0,46.9,51.3,46.2,43.3,96,87,72,29.98,29.87,5,1,14,0.35
2014-2-9,50.1,47.9,43.5,49.0,45.8,41.1,96,92,87,29.96,29.71,7,2,23,1.90
2014-2-10,56.4,49.7,42.7,48.6,43.9,40.5,93,81,62,29.94,29.73,7,1,23,0.09
2014-2-11,58.9,53.9,49.9,52.8,50.3,48.2,94,88,77,29.78,29.51,5,1,12,0.03
2014-2-12,52.7,47.2,42.5,48.9,45.2,40.6,97,93,81,29.89,29.54,3,0,9,0.71
2014-2-13,54.0,46.2,39.7,45.5,41.7,37.0,92,85,65,30.01,29.89,3,0,9,0.00
2014-2-14,60.2,51.6,46.9,51.6,46.8,41.5,96,84,63,30.01,29.81,6,1,13,0.03
2014-2-15,59.6,50.5,43.0,51.0,42.4,32.9,82,74,63,30.12,30.01,2,0,7,0.00
2014-2-16,63.1,53.3,48.0,51.6,45.8,41.1,86,76,60,30.12,30.06,2,0,5,0.00
2014-2-17,66.1,56.2,49.2,48.1,44.0,38.2,84,65,44,30.15,30.05,3,0,10,0.00
2014-2-18,68.7,58.7,51.3,50.0,40.1,34.1,58,50,39,30.14,30.05,1,0,6,0.00
2014-2-19,64.0,57.5,51.9,52.2,44.6,36.5,93,64,37,30.03,29.94,6,1,15,0.00
2014-2-20,53.3,50.8,47.8,50.9,48.6,45.6,95,92,88,29.96,29.89,2,0,8,1.14
2014-2-21,55.3,49.2,45.4,49.9,46.7,44.1,96,91,75,29.95,29.85,3,0,7,0.50
2014-2-22,52.7,47.6,41.5,51.3,45.7,38.8,96,93,89,30.05,29.93,2,0,12,0.36
2014-2-23,52.7,45.5,41.3,45.5,39.8,34.5,92,81,64,30.11,30.03,8,2,17,0.01
2014-2-24,50.3,44.8,39.8,40.1,36.8,34.1,81,74,66,30.14,30.07,7,2,16,0.01
2014-2-25,56.2,45.5,37.7,43.8,37.7,33.6,87,75,50,30.19,30.11,2,0,9,0.00
2014-2-26,54.9,45.5,39.7,45.7,40.2,33.7,92,82,70,30.23,30.17,3,0,9,0.02
2014-2-27,52.1,47.5,44.0,46.1,44.2,42.1,94,88,77,30.22,30.10,2,0,9,0.70
2014-2-28,48.5,44.4,39.9,45.3,41.7,38.0,94,90,85,30.10,29.80,2,0,12,0.12
2014-3-1,47.7,43.2,39.0,42.7,40.3,37.4,94,90,77,29.80,29.46,6,2,21,1.50
2014-3-2,48.1,41.0,36.0,41.9,38.1,34.3,97,90,77,29.57,29.42,2,0,7,0.06
2014-3-3,54.4,44.9,35.9,43.5,39.2,33.8,92,81,61,29.56,29.37,3,0,16,0.00
2014-3-4,49.1,44.2,38.8,46.3,41.3,36.4,95,90,78,29.50,29.30,5,1,20,1.21
2014-3-5,54.5,46.2,39.7,42.8,40.0,37.1,93,79,63,29.80,29.50,9,2,21,0.15
2014-3-6,52.2,48.6,45.2,42.7,39.3,36.3,81,70,60,30.01,29.80,13,6,29,0.02
2014-3-7,53.9,49.1,46.1,44.3,41.0,38.9,84,74,62,30.10,29.98,15,6,35,0.31
2014-3-8,51.6,49.4,46.7,42.3,39.4,37.0,76,69,60,30.26,30.07,10,6,33,0.00
2014-3-9,54.2,51.1,47.8,40.7,37.7,33.3,72,60,50,30.25,30.08,21,8,37,0.00
2014-3-10,50.7,46.4,41.8,41.9,39.3,36.8,88,76,62,30.08,29.97,10,4,27,0.44
2014-3-11,47.3,45.8,42.8,40.6,37.6,35.0,83,73,66,30.24,30.01,12,6,25,0.00
2014-3-12,58.2,49.8,43.7,39.3,36.2,30.8,70,60,46,30.36,30.24,8,3,26,0.00
2014-3-13,63.8,52.7,41.0,44.5,36.2,29.8,72,55,38,30.34,30.27,7,1,15,0.00
2014-3-14,63.8,52.7,45.8,46.2,39.5,33.4,82,62,45,30.28,30.17,1,0,12,0.00
2014-3-15,62.2,52.1,45.1,46.8,42.7,38.6,92,71,50,30.18,29.97,3,0,8,0.00
2014-3-16,63.2,51.6,43.2,50.6,45.4,39.2,90,80,59,30.07,29.92,2,0,7,0.00
2014-3-17,61.2,51.9,46.3,53.9,48.0,39.9,93,87,77,30.20,30.07,2,0,7,0.00
2014-3-18,62.9,54.1,45.9,53.7,49.8,42.5,94,86,70,30.22,30.15,2,0,8,0.00
2014-3-19,64.1,53.2,46.5,53.3,47.1,34.1,91,80,58,30.20,30.12,6,0,14,0.00
2014-3-20,66.8,59.6,53.5,49.6,45.9,42.8,73,61,46,30.24,30.18,10,4,20,0.00
2014-3-21,66.6,55.8,47.5,53.2,46.6,41.4,84,72,55,30.18,30.11,3,0,9,0.00
2014-3-22,64.0,54.5,47.7,51.6,47.8,42.8,91,79,60,30.13,29.98,3,0,10,0.00
2014-3-23,56.5,52.0,48.0,50.9,46.9,42.8,95,83,64,29.97,29.70,9,2,23,1.32
2014-4-1,59.4,53.4,50.7,51.1,48.6,46.7,90,84,74,30.04,30.00,1,0,8,1.32
2014-4-2,62.6,54.1,48.6,52.3,49.1,45.2,93,84,68,30.03,29.96,2,0,8,0.00
2014-4-3,69.1,55.9,46.6,53.8,45.7,41.3,87,71,41,29.97,29.74,2,0,7,0.00
2014-4-4,65.6,56.1,49.8,53.7,47.8,40.1,94,76,44,29.74,29.61,3,1,14,1.17
2014-4-5,62.1,53.8,45.8,51.0,47.2,44.1,94,79,60,29.78,29.66,10,2,23,0.05
2014-4-6,66.5,58.4,53.1,50.5,46.3,43.1,76,64,50,29.97,29.79,9,3,27,0.00
2014-4-7,67.8,58.6,49.2,52.0,46.4,42.8,83,65,49,30.11,29.97,5,1,16,0.00
2014-4-8,68.6,59.1,52.1,56.2,49.2,41.7,92,70,60,30.14,30.07,2,0,8,0.00
2014-4-9,62.3,56.0,52.3,55.6,51.1,39.5,93,84,60,30.08,29.95,15,1,27,0.16
2014-4-10,65.7,55.2,46.6,41.9,34.8,22.0,80,48,31,30.10,30.02,14,3,28,0.00
2014-4-11,65.2,54.4,46.0,53.3,47.0,39.8,87,77,63,30.07,30.02,3,0,12,0.00
2014-4-12,62.4,55.4,49.8,53.4,50.8,47.6,94,85,70,30.06,29.98,2,0,8,0.01
2014-4-13,63.3,55.0,50.7,53.8,48.2,42.8,92,79,55,30.02,29.95,5,1,13,0.00
2014-4-14,67.2,55.5,43.2,50.5,44.9,37.3,90,69,47,30.07,29.97,3,0,10,0.00
2014-4-15,56.1,49.8,39.9,54.4,47.3,36.9,95,91,75,29.97,29.78,15,4,32,1.80
2014-4-16,53.1,47.4,44.3,37.8,33.5,29.4,73,59,48,30.00,29.83,13,6,32,0.06
2014-4-17,54.7,46.6,40.7,38.3,35.6,32.5,84,66,45,30.00,29.88,8,2,26,0.04
2014-4-18,57.4,48.0,39.0,43.2,39.4,34.9,92,73,55,29.87,29.76,1,0,15,0.02
2014-4-19,58.7,51.8,48.8,52.1,47.8,43.7,94,87,63,29.79,29.75,5,1,20,0.59
2014-4-20,66.4,57.3,50.7,54.4,47.9,44.0,91,72,48,29.78,29.67,6,1,15,0.02
2014-4-21,73.5,60.9,51.5,59.4,50.8,43.6,90,70,50,29.82,29.64,2,0,8,0.00
2014-4-22,69.1,60.1,50.4,58.2,53.4,47.3,93,79,47,29.93,29.82,9,2,28,0.02
2014-4-23,61.1,56.6,53.6,54.4,51.9,49.9,94,85,74,29.93,29.82,10,4,25,0.62
2014-4-24,68.2,57.1,49.5,56.3,51.4,46.1,90,82,62,29.90,29.86,3,0,9,0.03
2014-4-25,68.1,58.2,51.4,59.0,53.1,48.6,93,84,69,29.90,29.83,2,0,8,0.00
2014-4-26,66.6,56.5,51.5,57.9,52.8,47.8,94,88,67,29.82,29.73,2,0,13,0.49
2014-4-27,56.8,53.5,49.0,56.0,52.1,47.3,97,95,91,29.81,29.68,2,0,10,0.87
2014-4-28,56.1,51.9,47.1,53.0,50.3,46.0,97,94,87,29.77,29.63,3,0,10,0.35
2014-4-29,57.8,51.3,46.0,51.4,48.6,44.9,96,90,72,29.84,29.72,2,0,8,0.53
2014-4-30,61.9,54.4,48.4,55.3,51.3,46.5,95,89,78,29.86,29.83,2,0,8,0.00
2014-5-1,66.8,55.5,47.1,55.7,51.1,45.7,96,86,63,29.86,29.78,6,0,12,0.55
2014-5-2,55.9,52.9,49.1,54.2,50.8,46.5,94,93,89,29.86,29.76,2,0,8,0.25
2014-5-3,60.4,51.8,46.4,53.4,48.9,44.4,96,90,74,29.75,29.59,2,0,10,0.54
2014-5-4,59.9,52.6,45.1,49.3,45.6,42.3,93,78,64,29.87,29.63,10,3,23,0.00
2014-5-5,63.6,55.8,50.4,47.9,43.5,40.8,76,64,52,30.06,29.86,12,3,30,0.00
2014-5-6,70.9,57.9,48.6,57.2,50.4,43.9,89,77,60,30.17,30.06,1,0,8,0.00
2014-5-7,66.2,57.3,51.3,58.1,51.9,41.7,92,82,65,30.16,30.05,2,0,7,0.00
2014-5-8,69.8,58.9,48.5,57.2,52.4,45.7,93,80,63,30.07,30.01,2,0,8,0.00
2014-5-9,73.9,61.8,51.0,57.7,51.3,43.6,86,69,54,30.04,29.98,2,0,9,0.00
2014-5-10,69.7,60.6,52.9,61.0,55.8,49.7,93,85,72,30.05,29.99,2,0,7,0.00
2014-5-11,70.8,61.1,54.9,60.2,55.7,50.8,94,83,62,30.04,29.93,1,0,8,0.00
2014-5-12,71.2,61.2,54.0,59.1,54.9,50.1,93,81,60,29.99,29.93,3,0,9,0.00
2014-5-13,66.0,58.3,52.0,56.8,53.9,50.1,94,86,66,29.99,29.90,1,0,7,0.08
2014-5-16,61.5,53.8,48.9,50.3,46.1,44.1,90,76,54,29.98,29.91,1,0,8,0.06
2014-5-17,64.6,53.7,48.3,53.3,48.8,43.5,93,84,60,30.11,29.96,2,0,10,0.52
2014-5-18,71.1,58.7,48.8,54.8,48.5,39.1,94,71,42,30.12,30.04,2,0,8,0.00
2014-5-19,66.7,60.7,56.4,54.9,48.6,41.0,89,65,48,30.05,29.98,5,0,7,0.00
2014-5-20,76.3,63.8,52.4,57.7,53.8,48.0,89,72,47,30.10,30.02,2,0,7,0.00
2014-5-21,79.7,67.0,57.0,62.0,55.6,50.2,79,68,48,30.10,30.05,2,0,8,0.00
2014-5-22,82.8,69.5,59.3,63.6,57.9,53.3,84,68,47,30.06,29.99,2,0,7,0.00
2014-5-23,72.4,65.5,59.0,61.6,56.1,45.8,84,72,51,30.04,29.88,2,0,9,0.00
2014-5-24,78.5,67.8,58.4,61.9,58.5,53.9,89,73,54,30.03,29.96,2,0,9,0.00
2014-5-25,77.4,66.7,60.9,64.0,58.3,53.3,86,75,58,30.02,29.93,8,3,23,0.10
2014-5-26,63.5,63.5,63.5,53.9,53.9,53.9,71,71,71,29.97,29.97,0,0,0,0.00
2014-5-27,63.5,63.5,63.5,53.9,53.9,53.9,71,71,71,29.97,29.97,0,0,0,0.00
2014-5-28,63.5,63.5,63.5,53.9,53.9,53.9,71,71,71,29.97,29.97,0,0,0,0.00
2014-5-29,63.5,62.9,60.6,56.1,54.4,53.9,85,74,71,29.97,29.86,0,0,4,0.03
2014-5-30,60.6,60.6,60.6,56.1,56.1,56.1,85,85,85,29.88,29.88,0,0,0,0.00
2014-5-31,60.6,60.6,60.6,56.1,56.1,56.1,85,85,85,29.88,29.88,0,0,0,0.00
2014-6-1,60.6,60.6,60.6,56.1,56.1,56.1,85,85,85,29.88,29.88,0,0,0,0.00
2014-6-2,60.6,60.6,60.6,56.1,56.1,56.1,85,85,85,29.88,29.88,0,0,0,0.00
2014-6-3,60.6,60.6,60.6,56.1,56.1,56.1,85,85,85,29.88,29.88,0,0,0,0.00
2014-6-4,60.6,60.6,60.6,56.1,56.1,56.1,85,85,85,29.88,29.88,0,0,0,0.00
2014-6-5,60.6,60.6,60.6,56.1,56.1,56.1,85,85,85,29.88,29.88,0,0,0,0.00
2014-6-6,60.6,60.6,60.6,56.1,56.1,56.1,85,85,85,29.88,29.88,0,0,0,0.00
2014-6-7,60.6,60.6,60.6,56.1,56.1,56.1,85,85,85,29.88,29.88,0,0,0,0.00
2014-6-8,86.9,76.0,60.6,60.2,53.9,46.6,85,48,36,30.05,29.88,9,2,18,0.00
2014-6-9,89.9,76.6,64.8,59.9,55.4,48.1,62,49,36,30.05,29.98,3,1,16,0.00
2014-6-10,70.6,69.0,67.5,53.1,52.9,52.7,59,56,54,30.04,30.02,6,2,13,0.00
2014-6-11,86.5,73.9,67.6,67.4,61.1,53.7,82,65,52,30.09,30.02,3,1,11,0.50
2014-6-12,68.9,67.4,65.0,60.4,58.5,57.2,76,73,71,30.09,30.06,0,0,5,0.00
2014-6-16,64.6,61.4,59.7,57.6,56.8,55.9,90,85,78,29.91,29.89,1,1,12,0.21
2014-6-21,77.7,71.2,61.6,63.7,61.7,57.4,88,73,59,30.05,30.00,1,0,9,0.07
2014-6-22,80.6,69.9,60.4,67.0,61.0,55.1,92,75,53,30.16,30.05,3,0,8,0.00
2014-6-23,82.2,72.2,63.3,66.6,58.8,47.2,83,63,47,30.18,30.09,1,0,7,0.00
2014-6-24,86.6,74.1,63.4,60.7,54.7,49.7,74,53,30,30.10,29.90,2,0,10,0.00
2014-6-25,80.6,73.2,66.4,69.3,63.2,52.5,90,72,56,29.99,29.81,2,0,12,0.13
2014-6-26,80.6,70.0,62.1,65.9,62.1,55.5,93,77,52,29.92,29.83,2,0,13,0.00
2014-6-27,78.3,69.9,60.6,64.7,60.7,56.7,89,73,60,30.08,29.91,1,0,8,0.00
2014-6-28,81.3,70.9,63.5,68.3,63.5,55.7,91,78,62,30.09,30.04,2,0,12,0.00
2014-6-29,69.1,64.2,62.3,65.4,60.6,59.0,92,88,84,30.04,29.98,1,0,6,0.00
2014-6-30,76.6,69.7,62.4,66.9,62.3,53.2,93,78,62,29.99,29.77,2,0,13,0.02
2014-7-1,80.9,68.7,59.6,65.2,61.2,56.7,92,78,56,30.07,29.99,1,0,7,0.00
2014-7-2,82.0,69.8,59.1,63.5,58.3,50.2,91,69,40,30.16,30.04,2,0,12,0.00
2014-7-3,87.5,73.8,60.2,66.9,58.2,37.4,81,59,40,30.22,30.15,3,1,15,0.00
2014-7-4,88.2,78.1,68.9,69.1,63.0,59.4,79,61,41,30.16,29.97,5,1,15,0.00
2014-7-5,82.3,73.3,64.1,71.3,63.3,54.8,86,71,49,29.98,29.89,2,0,10,0.00
2014-7-6,85.1,72.6,61.9,71.4,64.9,57.2,92,78,59,29.99,29.94,2,0,8,0.00
2014-7-7,86.9,74.9,64.9,70.6,63.2,54.4,89,68,51,30.04,29.97,2,0,10,0.00
2014-7-8,80.3,72.1,63.6,69.0,61.2,54.2,84,69,57,29.95,29.85,3,0,13,0.00
2014-7-9,76.1,66.9,59.1,62.9,58.7,55.3,92,76,60,29.90,29.83,2,0,14,0.00
2014-7-10,68.1,62.4,57.4,60.9,58.0,55.1,92,86,71,29.82,29.73,1,0,13,0.28
2014-7-11,75.9,64.5,54.8,60.5,56.6,51.9,93,77,54,29.86,29.75,1,0,9,0.01
2014-7-12,77.5,67.3,58.6,63.9,60.6,56.0,93,80,60,29.95,29.86,2,0,9,0.01
2014-7-13,72.8,66.1,59.4,63.7,60.7,57.2,95,84,66,29.98,29.90,2,0,10,0.70
2014-7-14,73.0,64.0,58.3,65.1,60.7,56.2,95,89,76,29.98,29.91,3,0,12,1.83
2014-7-15,78.1,66.4,57.7,67.3,60.6,55.7,95,82,58,30.01,29.94,5,0,10,0.46
2014-7-16,82.3,72.0,61.5,67.6,60.8,55.4,88,69,51,30.02,29.96,3,0,14,0.00
2014-7-17,84.7,74.4,65.3,67.1,61.2,55.4,79,64,46,30.02,29.98,5,0,14,0.00
2014-7-18,86.0,74.0,65.5,68.2,62.0,56.2,78,67,48,30.02,29.97,2,0,13,0.00
2014-7-19,87.1,75.6,63.8,68.1,61.8,53.9,74,63,51,30.02,29.98,2,0,8,0.00
2014-7-20,87.9,77.6,69.6,70.8,65.1,57.4,80,66,53,30.02,29.94,2,0,7,0.00
2014-7-21,76.7,70.9,62.4,68.9,62.0,55.3,87,74,53,30.02,29.83,2,0,20,0.17
2014-7-22,73.0,65.5,60.1,65.6,61.5,57.8,92,87,73,29.84,29.73,1,0,10,0.42
2014-7-23,81.7,68.2,57.4,65.5,61.4,55.1,94,80,57,29.87,29.77,2,0,8,0.01
2014-7-24,78.0,70.3,64.0,69.8,63.3,55.6,88,79,71,29.92,29.84,2,0,9,0.07
2014-7-25,83.2,71.8,62.9,68.6,64.5,59.9,94,79,59,29.95,29.90,2,0,6,0.00
2014-7-26,76.8,70.5,65.6,66.6,61.8,58.1,84,74,54,29.94,29.82,5,1,16,0.02
2014-7-27,81.1,71.5,63.5,69.9,63.9,59.3,90,77,67,29.89,29.79,3,0,13,0.00
2014-7-28,79.7,70.9,64.3,68.2,65.1,61.9,94,83,66,29.92,29.87,1,0,9,0.00
2014-7-29,82.9,72.4,64.9,70.3,65.9,60.1,96,81,63,29.90,29.73,1,0,6,0.00
2014-7-30,73.2,67.2,61.4,67.4,61.8,59.1,92,83,63,29.79,29.65,3,0,13,0.35
2014-7-31,76.6,66.7,60.1,66.1,61.8,58.4,96,85,63,29.85,29.77,2,0,7,0.13
2014-8-1,82.6,71.6,63.8,69.3,64.7,60.1,89,80,60,29.86,29.79,2,0,7,0.00
2014-8-2,81.9,73.0,66.9,71.3,67.2,63.7,94,83,66,29.95,29.83,2,0,8,0.00
2014-8-3,85.3,73.1,66.1,69.2,64.7,62.0,90,76,48,29.96,29.88,2,0,7,0.00
2014-8-4,88.1,75.1,64.3,69.9,63.6,56.8,92,69,45,29.94,29.91,3,0,8,0.00
2014-8-5,84.7,74.2,65.9,70.5,64.2,57.7,86,72,59,29.93,29.83,2,0,10,0.00
2014-8-6,83.9,72.0,63.5,65.9,62.5,59.6,89,73,50,29.86,29.82,6,1,14,0.00
2014-8-7,84.6,73.2,62.2,66.0,61.5,56.3,85,68,47,29.92,29.83,2,0,8,0.00
2014-8-8,86.6,74.5,65.7,68.7,64.7,60.6,85,73,49,29.99,29.92,2,0,7,0.00
2014-8-9,87.1,75.4,66.1,70.4,63.7,57.4,84,68,49,30.02,29.97,1,0,8,0.00
2014-8-10,89.8,76.4,66.9,68.4,61.8,52.6,83,62,42,30.03,29.97,2,0,6,0.00
2014-8-11,89.0,77.4,69.2,67.5,56.8,44.7,68,50,32,29.99,29.93,2,0,10,0.00
2014-8-12,87.9,76.1,67.3,67.2,60.1,54.3,80,59,42,29.95,29.89,2,0,10,0.00
2014-8-13,88.0,75.3,65.0,69.1,62.1,55.4,80,65,42,29.92,29.82,2,0,9,0.00
2014-8-14,80.8,71.6,62.0,70.2,63.6,57.9,92,77,50,29.94,29.82,3,0,13,0.00
2014-8-15,78.1,67.2,58.6,63.0,59.3,56.9,94,78,49,29.99,29.93,5,0,13,0.01
2014-8-16,77.5,68.8,60.1,63.2,60.9,57.9,94,77,55,29.99,29.93,5,0,12,0.00
2014-8-17,79.6,68.2,59.8,60.9,57.5,54.4,88,71,45,30.01,29.96,3,0,12,0.00
2014-8-18,79.9,68.5,60.6,61.9,56.6,49.6,89,67,47,30.01,29.97,2,0,9,0.00
2014-8-19,80.2,69.1,60.7,62.8,55.0,42.6,82,62,38,29.98,29.92,2,0,7,0.00
2014-8-20,82.9,73.7,66.9,70.3,61.7,49.9,93,67,50,29.99,29.94,2,0,10,0.01
2014-8-21,83.7,74.7,68.4,71.9,69.1,66.3,94,84,65,29.99,29.93,2,0,9,0.00
2014-8-22,83.0,72.8,64.9,70.6,66.3,60.9,95,81,55,30.00,29.93,2,0,9,0.00
2014-8-23,83.6,72.3,63.5,67.6,61.3,52.4,93,69,52,30.00,29.92,3,1,9,0.00
2014-8-24,79.6,69.9,60.4,67.1,62.2,55.9,97,79,48,30.00,29.92,3,0,10,0.00
2014-8-25,80.5,68.1,60.1,63.4,60.0,56.5,91,77,49,30.05,29.97,2,0,9,0.00
2014-8-26,79.3,69.1,62.4,64.9,61.6,56.7,94,78,53,30.05,29.96,2,0,13,0.00
2014-8-27,82.2,70.9,62.6,66.6,62.2,58.0,92,76,51,29.98,29.90,3,0,10,0.00
2014-8-28,85.8,74.1,64.9,68.4,63.6,58.4,91,71,47,29.94,29.90,3,1,20,0.00
2014-8-29,85.5,73.9,67.2,69.5,64.2,61.4,92,73,50,29.98,29.94,8,2,21,0.17
2014-8-30,83.6,73.1,66.8,67.9,64.9,62.2,88,76,55,30.01,29.95,1,0,9,0.00
2014-8-31,82.0,72.4,66.4,66.8,62.7,57.8,94,73,50,29.97,29.84,2,0,8,0.00
2014-9-1,71.9,65.2,56.5,67.1,61.8,51.9,94,89,73,29.84,29.49,5,0,16,1.40
2014-9-2,72.1,63.1,55.2,62.6,57.9,52.9,96,84,68,29.76,29.58,7,1,20,0.52
2014-9-3,72.5,64.5,56.8,61.7,58.6,52.9,93,81,69,29.84,29.74,5,1,12,0.04
2014-9-4,76.4,65.8,58.9,63.5,60.9,57.2,94,85,62,29.91,29.83,2,0,7,0.20
2014-9-5,73.8,65.9,61.5,64.8,62.5,60.1,96,89,71,29.90,29.82,1,0,6,1.49
2014-9-6,73.1,64.5,60.7,65.0,62.0,59.3,96,92,73,29.89,29.78,3,0,9,0.39
2014-9-7,76.4,67.0,60.9,66.2,61.9,58.4,94,84,60,29.97,29.87,2,0,9,0.00
2014-9-8,75.4,67.4,61.7,68.1,63.2,58.9,95,87,72,30.07,29.97,2,0,8,0.28
2014-9-9,77.4,68.2,60.9,68.2,64.3,59.2,96,88,68,30.06,29.97,1,0,8,0.00
2014-9-10,76.7,68.5,63.6,68.6,64.8,60.8,95,88,71,30.00,29.87,2,0,7,0.02
2014-9-11,70.0,65.4,59.7,67.1,62.8,57.7,96,92,84,29.88,29.81,2,0,9,0.98
2014-9-12,76.3,67.5,62.1,68.2,64.3,60.7,96,90,71,29.91,29.83,2,0,10,0.05
2014-9-13,75.2,67.4,59.3,66.9,61.6,51.6,96,83,61,29.99,29.88,2,0,9,0.01
2014-9-14,74.7,64.7,57.0,62.3,57.0,53.5,91,77,53,30.00,29.95,3,0,9,0.00
2014-9-15,75.5,65.5,59.0,63.8,57.6,49.4,90,76,61,30.03,29.97,2,0,10,0.00
2014-9-16,77.3,66.9,60.0,63.2,59.1,55.9,90,77,59,29.99,29.92,5,1,16,0.00
2014-9-17,74.5,66.9,58.2,61.5,56.9,53.0,85,71,54,30.00,29.94,5,1,12,0.00
2014-9-18,77.5,70.5,65.9,64.8,61.9,60.2,82,75,61,30.06,30.00,0,0,5,0.00
2014-9-19,80.1,71.0,63.5,68.9,62.7,54.0,88,75,60,30.11,30.04,1,0,7,0.00
2014-9-20,81.1,73.1,67.3,70.4,66.4,63.2,91,80,65,30.12,30.00,0,0,5,0.00
2014-9-21,78.5,71.8,66.1,71.2,68.3,63.4,95,89,76,30.05,29.96,0,0,0,0.00
2014-9-22,78.0,70.2,66.7,70.9,66.7,61.5,97,89,69,29.96,29.80,0,0,0,0.00
2014-9-23,67.4,64.1,58.8,63.6,52.2,42.7,90,67,43,30.00,29.79,13,5,29,0.00
2014-9-24,67.5,60.6,55.2,62.5,53.7,43.1,94,79,57,30.06,30.00,6,1,26,0.45
2014-9-25,71.2,63.1,60.0,65.3,60.9,58.5,96,93,78,30.03,29.96,2,0,8,0.35
2014-9-26,69.8,63.0,59.1,58.9,51.5,41.9,95,67,50,30.15,30.00,9,4,23,0.01
2014-9-27,68.2,62.2,54.2,55.5,49.3,41.5,73,63,53,30.29,30.15,6,2,20,0.00
2014-9-28,71.3,64.0,61.0,55.8,52.9,47.2,77,68,54,30.33,30.26,7,3,20,0.00
2014-9-29,72.0,63.0,52.3,56.9,50.9,45.4,89,66,50,30.38,30.31,6,1,15,0.00
2014-9-30,72.5,62.4,54.0,59.0,54.2,49.6,85,75,61,30.34,30.28,2,0,7,0.00
2014-10-1,71.7,63.4,57.0,62.4,56.5,47.7,90,78,69,30.29,30.19,1,0,6,0.00
2014-10-2,68.2,62.6,58.7,63.0,57.9,50.6,94,85,65,30.18,30.10,9,1,20,0.12
2014-10-3,69.0,64.4,60.9,59.2,56.0,53.3,80,74,69,30.12,30.04,14,6,24,0.00
2014-10-4,68.8,63.4,60.8,59.4,56.6,54.4,83,78,71,30.04,29.94,10,5,27,0.00
2014-10-5,69.3,63.2,60.6,58.9,56.7,55.0,84,79,69,29.95,29.89,10,6,23,0.01
2014-10-6,72.1,64.0,58.7,59.0,56.3,54.8,93,77,56,30.00,29.89,8,2,24,0.00
2014-10-7,67.5,59.8,55.9,60.4,57.1,54.8,96,91,78,30.10,30.00,1,0,2,0.01
2014-10-8,72.0,62.6,57.4,60.3,55.0,50.7,84,77,65,30.16,30.11,1,0,7,0.00
2014-10-11,70.5,64.9,62.9,60.3,53.9,49.9,82,68,59,30.04,30.03,2,0,8,0.00
2014-10-12,74.4,66.3,60.3,64.9,58.8,50.5,92,77,62,30.06,30.01,1,0,7,0.00
2014-10-13,76.3,67.3,61.3,65.1,60.2,56.3,89,79,60,30.05,29.97,1,0,8,0.00
2014-10-14,79.5,69.4,61.6,65.1,58.4,49.9,85,69,43,30.00,29.84,0,0,5,0.00
2014-10-15,79.3,71.1,64.4,64.5,58.0,51.7,89,64,45,29.93,29.82,2,0,16,0.00
2014-10-16,74.0,67.5,65.1,66.6,63.5,60.7,94,87,71,30.09,29.93,3,0,12,0.19
2014-10-17,74.3,67.0,64.2,66.0,63.8,61.2,96,90,73,30.15,30.06,2,0,8,0.08
2014-10-18,78.1,67.5,60.2,65.7,62.3,58.5,94,84,63,30.24,30.14,2,0,10,0.00
2014-10-19,77.1,67.8,61.5,62.5,59.0,56.5,88,74,54,30.26,30.21,5,1,12,0.00
2014-10-20,75.7,66.5,60.5,64.6,60.6,56.4,92,82,64,30.23,30.08,2,0,8,0.00
2014-10-21,70.0,65.2,60.2,64.1,62.1,58.5,95,90,81,30.08,29.84,1,0,7,0.00
2014-10-22,67.8,58.9,46.8,63.0,53.8,36.6,94,84,56,29.83,29.55,10,3,26,0.50
2014-10-23,58.1,49.8,41.8,41.3,37.4,33.8,77,63,42,29.79,29.66,7,1,20,0.00
2014-10-24,55.7,49.5,46.8,51.8,44.1,37.5,94,82,68,29.95,29.73,5,1,17,0.22
2014-10-25,60.4,54.3,49.3,48.0,45.0,41.9,85,71,59,30.09,29.95,6,1,17,0.00
2014-10-26,62.2,54.0,46.6,49.4,44.7,40.2,86,71,61,30.18,30.08,9,3,22,0.00
2014-10-27,59.4,53.9,50.9,47.9,45.2,43.4,80,73,63,30.18,30.14,9,5,24,0.00
2014-10-28,60.2,53.7,50.4,48.8,46.4,44.4,82,77,65,30.14,30.06,9,5,25,0.00
2014-10-29,64.1,54.8,48.6,50.9,46.6,43.5,91,75,49,30.12,30.04,3,1,13,0.00
2014-10-30,61.7,53.9,48.3,51.0,45.5,40.6,88,73,62,30.17,30.11,7,1,16,0.00
2014-10-31,62.3,55.6,50.9,46.5,43.5,40.8,75,64,55,30.20,30.15,9,3,20,0.00
2014-11-1,63.6,54.9,47.2,48.1,43.3,37.7,81,65,53,30.23,30.17,5,1,17,0.00
2014-11-2,64.9,54.4,48.1,50.2,46.0,39.0,88,74,58,30.23,30.16,2,0,6,0.00
2014-11-3,63.4,55.3,49.5,55.6,50.6,47.3,94,85,69,30.19,30.11,1,0,8,0.00
2014-11-4,64.0,57.7,49.3,54.9,51.2,47.4,94,80,64,30.11,29.89,3,1,15,0.02
2014-11-5,67.3,64.2,60.2,58.8,54.4,51.6,77,71,62,29.88,29.76,6,2,25,0.00
2014-11-6,72.3,67.6,63.1,59.5,55.9,50.5,84,67,51,29.82,29.74,9,2,22,0.01
2014-11-7,66.8,62.6,56.8,55.8,53.4,50.4,81,72,61,29.76,29.65,7,3,26,0.14
2014-11-8,63.8,58.8,55.5,55.0,52.4,50.0,87,79,71,29.89,29.74,12,4,32,0.00
2014-11-9,66.4,58.2,53.7,57.4,54.0,51.1,92,86,72,30.04,29.88,1,0,7,0.00
2014-11-10,67.2,58.1,52.9,58.4,53.3,46.5,94,84,68,30.10,30.04,1,0,5,0.01
2014-11-11,67.4,60.0,54.9,56.9,53.0,49.2,87,78,64,30.05,29.78,5,0,17,0.06
2014-11-12,59.3,56.9,53.9,57.6,53.9,51.5,95,90,78,29.79,29.65,2,0,12,0.65
2014-11-13,60.3,54.0,49.9,56.4,51.5,47.8,96,91,82,29.90,29.69,1,0,6,0.18
2014-11-14,65.1,55.6,49.3,55.9,50.3,46.2,90,83,68,29.97,29.90,2,0,8,0.00
2014-11-15,61.5,56.5,51.3,56.9,52.9,48.7,95,88,80,29.97,29.82,2,0,13,0.24
2014-11-16,63.0,56.0,51.8,56.4,52.4,48.9,96,88,67,29.89,29.80,3,0,12,1.24
2014-11-17,60.7,54.9,50.0,55.4,51.9,48.6,96,90,75,29.93,29.78,10,1,24,0.20
2014-11-18,59.9,53.7,49.6,54.5,50.0,46.7,95,88,67,29.95,29.76,9,0,27,0.39
2014-11-19,59.0,53.3,50.2,53.8,49.1,45.6,95,86,65,30.16,29.94,3,0,10,0.06
2014-11-20,60.1,52.3,47.0,47.9,43.2,36.2,82,71,56,30.25,30.16,5,1,12,0.00
2014-11-21,59.8,51.1,45.7,47.9,40.9,35.4,75,68,55,30.24,30.18,1,0,8,0.00
2014-11-22,62.0,52.1,45.9,48.8,42.9,38.4,78,71,60,30.28,30.21,1,0,5,0.00
2014-11-23,63.3,54.8,48.9,52.3,47.1,43.3,83,76,61,30.33,30.25,2,0,5,0.00
2014-11-24,62.3,54.3,50.0,51.0,47.5,44.9,86,78,62,30.29,30.18,1,0,6,0.00
2014-11-25,51.3,50.8,50.8,48.8,46.9,46.8,91,86,86,30.20,30.11,0,0,4,0.00
2014-11-26,59.5,54.6,50.9,55.7,52.0,48.7,95,91,85,30.11,29.97,0,0,4,0.03
2014-11-27,63.7,55.5,51.1,57.1,52.7,48.5,96,91,75,30.00,29.94,2,0,6,0.01
2014-11-28,66.0,57.5,50.0,55.3,49.5,45.6,86,75,61,29.95,29.86,6,0,14,0.00
2014-11-29,65.3,61.5,57.4,56.5,53.5,49.9,83,75,66,29.94,29.89,3,1,13,0.01
2014-11-30,71.4,63.1,54.3,58.0,49.1,42.3,78,62,36,29.93,29.77,3,0,12,0.00
2014-12-1,66.2,60.8,56.2,56.3,53.3,48.8,87,77,60,29.81,29.60,9,2,27,0.18
2014-12-2,54.9,53.1,51.4,52.6,51.0,49.3,96,93,86,29.70,29.59,3,0,9,0.89
2014-12-3,60.2,55.9,50.4,54.3,51.4,48.5,95,85,74,29.86,29.68,5,0,12,0.23
2014-12-4,58.6,53.4,50.7,55.2,51.5,48.9,96,93,87,29.98,29.86,1,0,9,0.83
2014-12-5,55.7,51.6,47.4,52.8,49.7,45.8,96,93,89,29.98,29.92,2,0,7,0.09
2014-12-6,55.6,50.2,45.8,52.7,48.3,43.6,97,93,82,29.99,29.93,2,0,6,0.02
2014-12-7,55.8,48.2,43.2,49.3,44.1,41.0,93,86,72,29.98,29.88,2,0,7,0.01
2014-12-8,54.3,48.7,44.9,45.1,41.2,37.9,83,75,65,29.90,29.86,3,1,13,0.00
2014-12-9,50.5,47.0,43.1,38.9,37.3,35.1,78,69,61,29.92,29.77,13,6,32,0.00
2014-12-10,48.8,45.9,42.7,39.7,37.2,34.8,77,72,63,30.08,29.92,12,7,27,0.00
2014-12-11,51.1,44.6,39.4,42.8,38.3,35.0,85,79,67,30.08,30.00,6,1,17,0.00
2014-12-12,54.8,44.9,37.2,41.6,34.0,24.7,90,67,43,30.24,30.08,2,0,10,0.00
2014-12-13,56.6,48.4,42.3,48.3,43.4,38.1,93,83,68,30.29,30.23,2,0,5,0.00
2014-12-14,58.5,50.4,46.3,45.8,43.0,41.1,88,76,57,30.26,30.19,1,0,8,0.00
2014-12-15,56.2,50.2,45.1,48.2,43.6,40.0,83,78,71,30.21,30.10,1,0,5,0.00
2014-12-16,54.5,49.6,46.9,48.2,45.5,41.9,94,86,74,30.09,29.76,5,1,14,1.38
2014-12-17,57.6,49.8,46.5,51.9,46.6,43.5,96,89,74,29.95,29.83,2,0,7,0.20
2014-12-18,55.4,50.0,44.4,46.2,43.6,40.7,91,79,68,30.20,29.93,9,3,20,0.00
2014-12-19,57.2,48.0,41.9,46.8,41.7,37.1,93,79,60,30.27,30.20,1,0,6,0.00
2014-12-20,58.3,51.4,47.0,51.5,48.3,45.1,95,89,75,30.25,30.17,2,0,4,0.02
2014-12-21,55.9,49.5,44.7,49.9,42.1,31.2,96,77,54,30.45,30.16,14,3,30,0.01
2014-12-22,55.5,45.9,38.2,40.6,31.9,21.7,86,59,37,30.49,30.43,2,0,16,0.00
2014-12-23,55.6,47.3,41.9,47.3,42.9,39.5,92,85,71,30.47,30.39,2,0,10,0.00
2014-12-24,50.9,48.9,46.5,44.4,42.3,40.4,87,78,71,30.42,30.31,2,0,8,0.00
2014-12-25,50.7,47.8,45.9,42.3,40.8,39.4,81,77,71,30.30,30.11,2,0,7,0.00
2014-12-26,51.5,46.3,42.4,44.9,36.6,20.9,86,70,41,30.10,30.00,10,4,26,0.00
2014-12-27,46.8,42.5,38.4,43.6,29.8,21.2,91,62,42,30.10,29.60,10,4,31,0.28
2014-12-28,49.2,43.8,40.0,47.5,40.8,34.5,95,89,80,29.61,29.41,9,1,22,0.49
2014-12-29,41.1,36.9,34.4,33.1,25.2,20.6,73,62,53,30.11,29.63,16,9,37,0.00
2014-12-30,34.5,30.2,25.6,24.7,19.3,14.2,84,64,51,30.16,30.08,15,8,32,0.00
2014-12-31,35.1,28.4,23.9,26.5,22.3,19.5,89,78,65,30.15,30.01,20,6,38,0.05
2015-1-1,41.2,38.8,34.5,28.6,25.2,19.2,69,58,46,30.38,30.16,16,9,43,0.00
2015-1-2,50.3,43.2,40.0,39.8,34.9,28.8,80,72,63,30.44,30.37,6,1,24,0.00